Time;durP1;ratioP1;P1;durP2;ratioP2;P2;SDS_P1;SDS_P2;PMS_P1;PMS_P2;Temp;Humidity;BMP_temperature;BMP_pressure;BME280_temperature;BME280_humidity;BME280_pressure;Samples;Min_cycle;Max_cycle;Signal;HPM_P1;HPM_P2
2022/03/28 00:02:06;;;;;;;0.80;0.80;;;4.30;1.00;;;;;;5050116;28;20664;-74
2022/03/28 00:04:32;;;;;;;0.80;0.80;;;4.40;99.90;;;;;;5051133;28;20167;-74
2022/03/28 00:06:58;;;;;;;0.80;0.80;;;4.40;99.90;;;;;;5050711;28;20207;-73
2022/03/28 00:09:24;;;;;;;0.73;0.73;;;4.40;1.00;;;;;;5050201;28;20167;-74
2022/03/28 00:11:49;;;;;;;0.80;0.80;;;4.40;99.90;;;;;;5050735;28;20255;-74
2022/03/28 00:14:15;;;;;;;0.80;0.80;;;4.50;1.00;;;;;;5050497;28;20521;-73
2022/03/28 00:16:40;;;;;;;0.70;0.70;;;4.40;99.90;;;;;;5050671;28;20184;-74
2022/03/28 00:19:06;;;;;;;0.80;0.80;;;4.30;1.00;;;;;;5050033;28;20206;-75
2022/03/28 00:21:31;;;;;;;0.80;0.80;;;4.30;1.00;;;;;;5050599;28;20282;-74
2022/03/28 00:23:58;;;;;;;0.80;0.80;;;4.20;99.90;;;;;;5050751;28;20635;-74
2022/03/28 00:26:23;;;;;;;0.80;0.80;;;4.10;99.90;;;;;;5050431;28;20215;-74
2022/03/28 00:28:49;;;;;;;0.80;0.80;;;4.00;99.90;;;;;;5050337;28;20178;-75
2022/03/28 00:31:15;;;;;;;0.70;0.70;;;4.00;1.00;;;;;;5049915;28;20199;-73
2022/03/28 00:33:41;;;;;;;0.80;0.80;;;4.00;1.00;;;;;;5053748;28;20244;-73
2022/03/28 00:36:07;;;;;;;0.70;0.70;;;4.00;1.00;;;;;;5053603;28;20341;-73
2022/03/28 00:38:32;;;;;;;0.80;0.80;;;4.00;1.00;;;;;;5053353;28;20244;-74
2022/03/28 00:40:58;;;;;;;0.80;0.80;;;3.80;1.70;;;;;;5053398;28;20282;-73
2022/03/28 00:43:23;;;;;;;0.80;0.80;;;3.80;1.00;;;;;;5053924;28;20328;-72
2022/03/28 00:45:49;;;;;;;0.80;0.80;;;3.80;1.00;;;;;;5053777;28;20214;-73
2022/03/28 00:48:15;;;;;;;0.80;0.80;;;3.60;1.00;;;;;;5053633;28;20175;-73
2022/03/28 00:50:41;;;;;;;0.80;0.80;;;3.70;4.20;;;;;;5053085;28;20237;-72
2022/03/28 00:53:10;;;;;;;0.80;0.80;;;3.80;1.00;;;;;;5053713;28;20174;-75
2022/03/28 00:55:36;;;;;;;0.70;0.70;;;3.70;1.00;;;;;;5053519;28;20197;-73
2022/03/28 00:58:01;;;;;;;0.70;0.70;;;3.80;1.00;;;;;;5053528;28;20652;-75
2022/03/28 01:00:27;;;;;;;0.80;0.80;;;3.80;94.00;;;;;;5052847;28;20581;-73
2022/03/28 01:02:52;;;;;;;0.80;0.80;;;3.60;99.90;;;;;;5053136;28;20686;-73
2022/03/28 01:05:18;;;;;;;0.80;0.80;;;3.60;99.90;;;;;;5053510;28;20612;-72
2022/03/28 01:07:44;;;;;;;0.90;0.90;;;3.70;7.40;;;;;;5053247;28;20273;-76
2022/03/28 01:10:11;;;;;;;0.80;0.80;;;3.60;79.70;;;;;;5052669;28;20202;-72
2022/03/28 01:12:37;;;;;;;0.70;0.70;;;3.50;99.90;;;;;;5053331;28;20218;-76
2022/03/28 01:15:04;;;;;;;0.70;0.70;;;3.60;1.00;;;;;;5053299;28;20533;-73
2022/03/28 01:20:15;;;;;;;0.80;0.80;;;3.40;94.10;;;;;;5052500;28;20286;-73
2022/03/28 01:22:40;;;;;;;0.80;0.80;;;3.30;1.00;;;;;;5052708;28;20277;-72
2022/03/28 01:25:07;;;;;;;0.80;0.80;;;3.30;1.00;;;;;;5052919;28;20225;-74
2022/03/28 01:27:36;;;;;;;0.83;0.83;;;3.30;99.90;;;;;;5053087;28;20222;-72
2022/03/28 01:30:04;;;;;;;0.80;0.80;;;3.20;1.00;;;;;;5052534;28;20211;-73
2022/03/28 01:32:30;;;;;;;0.80;0.80;;;3.10;99.90;;;;;;5053010;28;20312;-75
2022/03/28 01:34:55;;;;;;;0.80;0.80;;;3.20;30.70;;;;;;5052937;28;20259;-72
2022/03/28 01:37:21;;;;;;;0.73;0.73;;;3.00;1.00;;;;;;5052714;28;20207;-73
2022/03/28 01:39:46;;;;;;;0.80;0.80;;;3.10;99.90;;;;;;5052149;28;20191;-75
2022/03/28 01:42:12;;;;;;;0.90;0.90;;;3.10;1.00;;;;;;5052486;28;20171;-72
2022/03/28 01:44:37;;;;;;;0.80;0.80;;;3.00;1.00;;;;;;5051771;28;20174;-72
2022/03/28 01:47:03;;;;;;;0.80;0.80;;;2.90;1.00;;;;;;5052421;28;20334;-74
2022/03/28 01:49:29;;;;;;;0.83;0.83;;;2.70;1.00;;;;;;5051779;28;20179;-72
2022/03/28 01:51:54;;;;;;;0.80;0.80;;;2.80;99.90;;;;;;5052433;28;20206;-72
2022/03/28 01:54:20;;;;;;;0.90;0.90;;;2.90;99.90;;;;;;5052410;28;20183;-73
2022/03/28 01:56:45;;;;;;;0.80;0.80;;;2.90;99.90;;;;;;5052290;28;20548;-72
2022/03/28 01:59:11;;;;;;;0.83;0.83;;;2.70;1.00;;;;;;5051856;28;20271;-72
2022/03/28 02:01:37;;;;;;;0.80;0.80;;;2.70;1.00;;;;;;5052456;28;20198;-73
2022/03/28 02:04:04;;;;;;;0.90;0.90;;;2.80;1.00;;;;;;5052233;28;20265;-73
2022/03/28 02:06:32;;;;;;;0.70;0.70;;;2.80;99.90;;;;;;5052238;28;20215;-73
2022/03/28 02:08:58;;;;;;;0.83;0.83;;;2.80;1.00;;;;;;5051728;28;20177;-73
2022/03/28 02:11:23;;;;;;;0.70;0.70;;;2.70;47.90;;;;;;5051845;28;20612;-73
2022/03/28 02:13:49;;;;;;;0.70;0.70;;;2.70;99.90;;;;;;5052125;28;20174;-73
2022/03/28 02:16:14;;;;;;;0.80;0.80;;;2.70;1.00;;;;;;5052200;28;20175;-74
2022/03/28 02:18:40;;;;;;;0.70;0.70;;;2.70;1.00;;;;;;5052086;28;20174;-72
2022/03/28 02:21:06;;;;;;;0.80;0.80;;;2.70;1.00;;;;;;5051585;28;20683;-72
2022/03/28 02:23:31;;;;;;;0.80;0.80;;;2.60;1.00;;;;;;5051922;28;20199;-74
2022/03/28 02:25:57;;;;;;;0.80;0.80;;;2.70;99.90;;;;;;5051523;28;20223;-72
2022/03/28 02:28:23;;;;;;;0.70;0.70;;;2.70;99.90;;;;;;5051763;28;20171;-73
2022/03/28 02:30:49;;;;;;;0.90;0.90;;;2.50;1.00;;;;;;5051257;28;20793;-74
2022/03/28 02:33:15;;;;;;;0.80;0.80;;;2.70;99.90;;;;;;5051822;28;20171;-72
2022/03/28 02:35:41;;;;;;;0.80;0.80;;;2.60;1.00;;;;;;5051744;28;20265;-73
2022/03/28 02:38:07;;;;;;;0.80;0.80;;;2.60;1.00;;;;;;5051461;28;20317;-73
2022/03/28 02:40:33;;;;;;;0.80;0.80;;;2.50;1.00;;;;;;5050975;28;20222;-73
2022/03/28 02:42:59;;;;;;;0.80;0.80;;;2.50;99.90;;;;;;5051637;28;20258;-73
2022/03/28 02:45:33;;;;;;;0.80;0.80;;;2.40;1.00;;;;;;5051527;28;20202;-73
2022/03/28 02:47:59;;;;;;;0.80;0.80;;;2.30;1.00;;;;;;5051583;28;20186;-73
2022/03/28 02:50:30;;;;;;;0.80;0.80;;;2.30;1.00;;;;;;5050336;28;20199;-73
2022/03/28 02:52:56;;;;;;;0.90;0.90;;;2.30;1.00;;;;;;5051220;28;20707;-73
2022/03/28 02:55:22;;;;;;;0.73;0.73;;;2.40;1.00;;;;;;5050932;28;20270;-73
2022/03/28 02:57:47;;;;;;;0.80;0.80;;;2.30;1.00;;;;;;5051446;28;20189;-73
2022/03/28 03:00:13;;;;;;;0.87;0.87;;;2.20;25.20;;;;;;5051901;28;20195;-75
2022/03/28 03:02:40;;;;;;;0.80;0.80;;;2.20;99.90;;;;;;5052270;28;20671;-72
2022/03/28 03:05:07;;;;;;;0.70;0.70;;;2.20;99.90;;;;;;5051649;28;20213;-76
2022/03/28 03:07:32;;;;;;;0.90;0.90;;;2.30;99.90;;;;;;5053065;28;20589;-73
2022/03/28 03:09:58;;;;;;;0.80;0.80;;;2.10;1.00;;;;;;5052179;28;20288;-73
2022/03/28 03:12:24;;;;;;;0.70;0.70;;;2.10;1.00;;;;;;5052915;28;20365;-74
2022/03/28 03:14:51;;;;;;;0.80;0.80;;;2.10;1.00;;;;;;5051245;28;20189;-72
2022/03/28 03:17:16;;;;;;;0.80;0.80;;;2.00;1.00;;;;;;5051262;28;20645;-74
2022/03/28 03:19:43;;;;;;;0.80;0.80;;;1.70;99.90;;;;;;5050374;28;20302;-73
2022/03/28 03:22:09;;;;;;;0.90;0.90;;;1.80;1.00;;;;;;5050785;28;20232;-74
2022/03/28 03:24:35;;;;;;;0.80;0.80;;;1.80;1.00;;;;;;5050633;28;20167;-76
2022/03/28 03:27:00;;;;;;;0.90;0.90;;;2.00;49.70;;;;;;5050912;28;20222;-73
2022/03/28 03:29:26;;;;;;;0.90;0.90;;;1.90;1.00;;;;;;5050220;28;20179;-73
2022/03/28 03:31:52;;;;;;;0.80;0.80;;;1.90;1.00;;;;;;5050741;28;20485;-73
2022/03/28 03:34:19;;;;;;;0.80;0.80;;;1.90;11.70;;;;;;5050513;28;20514;-73
2022/03/28 03:36:45;;;;;;;0.80;0.80;;;1.80;99.90;;;;;;5050878;28;20613;-73
2022/03/28 03:39:10;;;;;;;0.87;0.87;;;1.80;31.10;;;;;;5050063;28;20269;-73
2022/03/28 03:41:36;;;;;;;0.83;0.83;;;1.90;1.00;;;;;;5050925;28;20222;-75
2022/03/28 03:44:01;;;;;;;0.80;0.80;;;1.70;32.00;;;;;;5050806;28;20714;-73
2022/03/28 03:46:27;;;;;;;0.73;0.73;;;1.80;99.90;;;;;;5050740;28;20207;-73
2022/03/28 03:48:52;;;;;;;0.80;0.80;;;1.80;99.90;;;;;;5050399;28;20178;-76
2022/03/28 03:51:18;;;;;;;0.80;0.80;;;1.80;1.00;;;;;;5050463;28;20863;-73
2022/03/28 03:53:44;;;;;;;0.80;0.80;;;1.80;18.70;;;;;;5050317;28;20175;-73
2022/03/28 03:56:10;;;;;;;0.87;0.87;;;1.90;99.90;;;;;;5050623;28;20171;-74
2022/03/28 03:58:35;;;;;;;0.80;0.80;;;2.00;99.90;;;;;;5050606;28;20168;-75
2022/03/28 04:01:02;;;;;;;0.70;0.70;;;1.80;1.00;;;;;;5050305;28;20203;-73
2022/03/28 04:03:27;;;;;;;0.70;0.70;;;1.70;99.90;;;;;;5051508;28;20172;-72
2022/03/28 04:05:53;;;;;;;0.77;0.77;;;1.70;99.90;;;;;;5050944;28;20203;-72
2022/03/28 04:08:19;;;;;;;0.70;0.70;;;1.80;99.90;;;;;;5053976;28;20495;-72
2022/03/28 04:10:44;;;;;;;0.80;0.80;;;1.70;24.20;;;;;;5054408;28;20234;-75
2022/03/28 04:13:10;;;;;;;0.73;0.73;;;1.60;99.90;;;;;;5055048;28;20174;-72
2022/03/28 04:15:37;;;;;;;0.77;0.77;;;1.60;1.00;;;;;;5054869;28;20241;-73
2022/03/28 04:18:02;;;;;;;0.80;0.80;;;1.60;1.00;;;;;;5054752;28;20636;-72
2022/03/28 04:20:29;;;;;;;0.90;0.90;;;1.60;99.90;;;;;;5054119;28;20260;-75
2022/03/28 04:22:55;;;;;;;0.80;0.80;;;1.60;99.90;;;;;;5054618;28;20181;-72
2022/03/28 04:25:21;;;;;;;0.60;0.60;;;1.70;1.00;;;;;;5053451;28;20494;-72
2022/03/28 04:27:47;;;;;;;0.73;0.73;;;1.90;1.00;;;;;;5054272;28;20473;-72
2022/03/28 04:30:13;;;;;;;0.80;0.80;;;2.00;1.00;;;;;;5053826;28;20198;-72
2022/03/28 04:32:39;;;;;;;0.80;0.80;;;1.90;92.60;;;;;;5054348;28;20182;-72
2022/03/28 04:35:07;;;;;;;0.80;0.80;;;1.80;99.90;;;;;;5054089;28;20236;-72
2022/03/28 04:37:34;;;;;;;0.80;0.80;;;1.90;99.90;;;;;;5054013;28;20168;-73
2022/03/28 04:40:00;;;;;;;0.90;0.90;;;1.90;1.00;;;;;;5053032;28;20195;-71
2022/03/28 04:42:26;;;;;;;0.73;0.73;;;1.90;1.00;;;;;;5053629;28;20186;-72
2022/03/28 04:44:51;;;;;;;0.80;0.80;;;1.80;99.90;;;;;;5054140;28;20175;-72
2022/03/28 04:47:17;;;;;;;0.70;0.70;;;1.80;1.00;;;;;;5054139;28;20328;-72
2022/03/28 04:49:42;;;;;;;0.80;0.80;;;1.70;1.00;;;;;;5053825;28;20187;-72
2022/03/28 04:52:08;;;;;;;0.90;0.90;;;1.70;1.00;;;;;;5054019;28;20262;-72
2022/03/28 04:54:36;;;;;;;0.80;0.80;;;1.70;1.00;;;;;;5054256;28;20250;-72
2022/03/28 04:57:04;;;;;;;0.77;0.77;;;1.60;1.00;;;;;;5052740;28;20183;-72
2022/03/28 04:59:31;;;;;;;0.87;0.87;;;1.40;99.90;;;;;;5053423;28;20183;-71
2022/03/28 05:01:57;;;;;;;0.80;0.80;;;1.30;1.00;;;;;;5053928;28;20636;-72
2022/03/28 05:04:22;;;;;;;0.70;0.70;;;1.40;1.00;;;;;;5053732;28;20171;-72
2022/03/28 05:06:48;;;;;;;0.80;0.80;;;1.30;1.00;;;;;;5054004;28;20268;-71
2022/03/28 05:09:13;;;;;;;0.80;0.80;;;1.30;1.00;;;;;;5053335;28;20252;-72
2022/03/28 05:11:39;;;;;;;0.70;0.70;;;1.50;1.00;;;;;;5053809;28;20206;-72
2022/03/28 05:14:04;;;;;;;0.80;0.80;;;1.60;99.90;;;;;;5053859;28;20171;-72
2022/03/28 05:16:30;;;;;;;0.80;0.80;;;1.60;99.90;;;;;;5053533;28;20179;-72
2022/03/28 05:18:56;;;;;;;0.80;0.80;;;1.60;99.90;;;;;;5051898;28;20655;-71
2022/03/28 05:21:22;;;;;;;0.80;0.80;;;1.60;99.90;;;;;;5053625;28;20196;-72
2022/03/28 05:23:47;;;;;;;0.80;0.80;;;1.70;1.00;;;;;;5053605;28;20586;-72
2022/03/28 05:26:13;;;;;;;0.80;0.80;;;1.70;1.00;;;;;;5053432;28;20698;-72
2022/03/28 05:28:38;;;;;;;0.70;0.70;;;1.80;1.00;;;;;;5053519;28;20172;-72
2022/03/28 05:31:04;;;;;;;0.70;0.70;;;1.80;1.00;;;;;;5052931;28;20251;-72
2022/03/28 05:33:30;;;;;;;0.80;0.80;;;2.00;1.00;;;;;;5053178;28;20171;-72
2022/03/28 05:35:56;;;;;;;0.80;0.80;;;2.00;99.90;;;;;;5053217;28;20179;-74
2022/03/28 05:38:22;;;;;;;0.70;0.70;;;2.00;1.00;;;;;;5053333;28;20179;-74
2022/03/28 05:40:47;;;;;;;0.77;0.77;;;2.10;47.10;;;;;;5052702;28;20249;-75
2022/03/28 05:43:13;;;;;;;0.87;0.87;;;2.20;99.90;;;;;;5053068;28;20177;-73
2022/03/28 05:45:39;;;;;;;0.80;0.80;;;2.30;1.00;;;;;;5053052;28;20233;-74
2022/03/28 05:48:04;;;;;;;0.80;0.80;;;2.50;1.00;;;;;;5053058;28;20254;-74
2022/03/28 05:50:30;;;;;;;0.73;0.73;;;2.50;99.90;;;;;;5052430;28;20252;-75
2022/03/28 05:52:56;;;;;;;0.80;0.80;;;2.80;1.00;;;;;;5053036;28;20263;-74
2022/03/28 05:55:22;;;;;;;0.70;0.70;;;2.80;1.00;;;;;;5053151;28;20593;-74
2022/03/28 05:57:48;;;;;;;0.80;0.80;;;2.70;1.00;;;;;;5052911;28;20632;-74
2022/03/28 06:00:14;;;;;;;0.80;0.80;;;2.90;99.90;;;;;;5050880;28;20199;-75
2022/03/28 06:02:44;;;;;;;0.70;0.70;;;2.70;1.00;;;;;;5052683;28;20727;-74
2022/03/28 06:05:11;;;;;;;0.70;0.70;;;2.60;99.90;;;;;;5052867;28;20237;-73
2022/03/28 06:07:37;;;;;;;0.70;0.70;;;2.80;1.00;;;;;;5052485;28;20210;-73
2022/03/28 06:10:05;;;;;;;0.73;0.73;;;3.00;99.90;;;;;;5052430;28;20187;-73
2022/03/28 06:12:31;;;;;;;0.70;0.70;;;3.20;1.00;;;;;;5052575;28;20324;-73
2022/03/28 06:14:57;;;;;;;0.80;0.80;;;3.10;1.00;;;;;;5053071;28;20624;-73
2022/03/28 06:17:24;;;;;;;0.80;0.80;;;3.30;1.00;;;;;;5052513;28;20228;-73
2022/03/28 06:19:50;;;;;;;0.80;0.80;;;3.20;58.90;;;;;;5052057;28;20191;-73
2022/03/28 06:22:16;;;;;;;0.80;0.80;;;3.70;99.00;;;;;;5052567;28;20190;-73
2022/03/28 06:24:42;;;;;;;0.80;0.80;;;4.20;1.00;;;;;;5052235;28;20163;-72
2022/03/28 06:27:08;;;;;;;0.70;0.70;;;4.70;1.00;;;;;;5052285;28;20217;-73
2022/03/28 06:29:34;;;;;;;0.80;0.80;;;5.10;1.00;;;;;;5051408;28;20175;-74
2022/03/28 06:31:59;;;;;;;0.80;0.80;;;4.90;6.30;;;;;;5052280;28;20186;-75
2022/03/28 06:34:25;;;;;;;0.70;0.70;;;4.80;99.90;;;;;;5052354;28;20171;-73
2022/03/28 06:36:50;;;;;;;0.70;0.70;;;4.80;99.90;;;;;;5052172;28;20183;-74
2022/03/28 06:39:16;;;;;;;0.70;0.70;;;5.20;2.00;;;;;;5051774;28;20175;-75
2022/03/28 06:41:42;;;;;;;0.70;0.70;;;5.20;1.00;;;;;;5051921;28;20577;-73
2022/03/28 06:44:11;;;;;;;0.70;0.70;;;5.40;1.00;;;;;;5051995;28;20175;-73
2022/03/28 06:46:40;;;;;;;0.80;0.80;;;5.50;1.00;;;;;;5052445;28;20254;-73
2022/03/28 06:49:07;;;;;;;0.70;0.70;;;5.60;1.00;;;;;;5051634;28;20171;-73
2022/03/28 06:51:33;;;;;;;0.63;0.63;;;5.80;1.00;;;;;;5051794;28;20191;-76
2022/03/28 06:53:59;;;;;;;0.60;0.60;;;6.00;1.00;;;;;;5051799;28;20644;-74
2022/03/28 06:56:25;;;;;;;0.80;0.80;;;6.10;1.00;;;;;;5056648;28;20178;-73
2022/03/28 06:58:51;;;;;;;0.60;0.60;;;6.00;99.90;;;;;;5051673;28;20171;-78
2022/03/28 07:01:16;;;;;;;0.63;0.63;;;6.00;99.90;;;;;;5051871;28;20702;-73
2022/03/28 07:03:42;;;;;;;0.67;0.67;;;6.40;99.90;;;;;;5051837;28;20198;-74
2022/03/28 07:06:08;;;;;;;0.70;0.70;;;7.00;23.60;;;;;;5051673;28;20679;-76
2022/03/28 07:08:34;;;;;;;0.60;0.60;;;7.20;1.00;;;;;;5051891;28;20266;-73
2022/03/28 07:10:59;;;;;;;0.50;0.50;;;7.60;1.00;;;;;;5051291;28;20278;-73
2022/03/28 07:13:25;;;;;;;0.53;0.53;;;8.90;1.00;;;;;;5051615;28;20282;-73
2022/03/28 07:15:50;;;;;;;0.60;0.60;;;9.50;1.00;;;;;;5051472;28;20186;-73
2022/03/28 07:18:16;;;;;;;0.60;0.60;;;10.20;1.00;;;;;;5051390;28;20175;-73
2022/03/28 07:20:43;;;;;;;0.50;0.50;;;9.80;1.00;;;;;;5052658;28;20218;-73
2022/03/28 07:23:09;;;;;;;0.50;0.50;;;10.60;1.00;;;;;;5052169;28;20549;-74
2022/03/28 07:25:36;;;;;;;0.40;0.40;;;10.30;1.00;;;;;;5051544;28;20171;-74
2022/03/28 07:28:09;;;;;;;0.40;0.40;;;11.60;1.00;;;;;;5054742;28;20210;-77
2022/03/28 07:30:36;;;;;;;0.40;0.40;;;12.50;1.00;;;;;;5051603;28;20199;-74
2022/03/28 07:33:02;;;;;;;0.40;0.40;;;12.40;1.00;;;;;;5052000;28;20179;-73
2022/03/28 07:35:32;;;;;;;0.50;0.50;;;12.50;1.00;;;;;;5052704;28;20536;-77
2022/03/28 07:37:58;;;;;;;0.37;0.37;;;13.20;1.00;;;;;;5053232;28;20182;-74
2022/03/28 07:40:25;;;;;;;0.30;0.30;;;13.50;1.00;;;;;;5050826;28;20553;-75
2022/03/28 07:42:51;;;;;;;0.40;0.40;;;13.50;1.00;;;;;;5053573;28;20183;-75
2022/03/28 07:45:17;;;;;;;0.30;0.30;;;13.40;1.00;;;;;;5055697;28;20171;-76
2022/03/28 07:47:43;;;;;;;0.20;0.20;;;13.70;1.00;;;;;;5055279;28;20624;-74
2022/03/28 07:50:09;;;;;;;0.30;0.30;;;14.10;1.00;;;;;;5054813;28;20222;-74
2022/03/28 07:52:35;;;;;;;0.40;0.40;;;14.20;1.00;;;;;;5055200;28;20560;-74
2022/03/28 07:55:02;;;;;;;0.30;0.30;;;13.80;1.00;;;;;;5055315;28;20386;-75
2022/03/28 07:57:28;;;;;;;0.30;0.30;;;13.70;1.00;;;;;;5054960;28;20183;-76
2022/03/28 07:59:53;;;;;;;0.27;0.27;;;13.60;1.00;;;;;;5054664;28;20199;-74
2022/03/28 08:02:19;;;;;;;0.40;0.40;;;13.50;1.00;;;;;;5056953;28;20206;-76
2022/03/28 08:04:45;;;;;;;0.30;0.30;;;13.20;1.00;;;;;;5058894;28;20225;-75
2022/03/28 08:07:12;;;;;;;0.30;0.30;;;13.90;1.00;;;;;;5057470;28;20625;-76
2022/03/28 08:09:39;;;;;;;0.40;0.40;;;13.90;1.00;;;;;;5057380;28;20608;-76
2022/03/28 08:12:06;;;;;;;0.30;0.30;;;14.60;1.00;;;;;;5054889;28;20186;-76
2022/03/28 08:14:32;;;;;;;0.40;0.40;;;15.00;1.00;;;;;;5054773;28;20262;-77
2022/03/28 08:16:58;;;;;;;0.40;0.40;;;15.20;1.00;;;;;;5054648;28;20659;-77
2022/03/28 08:19:24;;;;;;;0.20;0.20;;;15.70;1.00;;;;;;5054279;28;20309;-77
2022/03/28 08:21:50;;;;;;;0.20;0.20;;;15.70;1.00;;;;;;5054900;28;20274;-77
2022/03/28 08:24:15;;;;;;;0.30;0.30;;;15.30;1.00;;;;;;5054659;28;20343;-76
2022/03/28 08:26:41;;;;;;;0.23;0.23;;;15.70;1.00;;;;;;5054452;28;20222;-76
2022/03/28 08:29:07;;;;;;;0.23;0.23;;;16.10;1.00;;;;;;5054074;28;20211;-76
2022/03/28 08:31:33;;;;;;;0.20;0.20;;;15.90;1.00;;;;;;5054749;28;20203;-76
2022/03/28 08:33:58;;;;;;;0.20;0.20;;;15.60;1.00;;;;;;5054986;28;20179;-75
2022/03/28 08:36:24;;;;;;;0.30;0.30;;;15.80;1.00;;;;;;5054550;28;20265;-76
2022/03/28 08:38:50;;;;;;;0.30;0.30;;;15.90;1.00;;;;;;5054267;28;20187;-77
2022/03/28 08:41:17;;;;;;;0.30;0.30;;;16.10;1.00;;;;;;5053993;28;20214;-76
2022/03/28 08:43:43;;;;;;;0.30;0.30;;;15.70;1.00;;;;;;5056294;28;20195;-76
2022/03/28 08:46:09;;;;;;;0.20;0.20;;;16.40;1.00;;;;;;5054312;28;20241;-77
2022/03/28 08:48:40;;;;;;;0.30;0.30;;;16.00;1.00;;;;;;5054228;28;20171;-76
2022/03/28 08:51:10;;;;;;;0.20;0.20;;;16.60;1.00;;;;;;5053625;28;20195;-76
2022/03/28 08:53:37;;;;;;;0.20;0.20;;;16.50;1.00;;;;;;5053740;28;20663;-76
2022/03/28 08:56:03;;;;;;;0.20;0.20;;;16.80;1.00;;;;;;5054323;28;20178;-77
2022/03/28 08:58:29;;;;;;;0.20;0.20;;;17.00;1.00;;;;;;5054115;28;20171;-77
2022/03/28 09:00:55;;;;;;;0.30;0.30;;;17.60;1.00;;;;;;5053612;28;20202;-76
2022/03/28 09:03:36;;;;;;;0.30;0.30;;;18.30;1.00;;;;;;5054019;28;20171;-77
2022/03/28 09:06:09;;;;;;;0.40;0.40;;;18.00;1.00;;;;;;5054325;28;20491;-77
2022/03/28 09:08:37;;;;;;;0.30;0.30;;;18.90;1.00;;;;;;5053756;28;20548;-77
2022/03/28 09:11:20;;;;;;;0.30;0.30;;;19.20;1.00;;;;;;5053435;28;20218;-77
2022/03/28 09:13:46;;;;;;;0.33;0.33;;;18.60;1.00;;;;;;5053812;28;20269;-77
2022/03/28 09:16:18;;;;;;;0.30;0.30;;;18.70;1.00;;;;;;5053688;28;20274;-77
2022/03/28 09:18:44;;;;;;;0.30;0.30;;;19.00;1.00;;;;;;5053482;28;20176;-77
2022/03/28 09:21:17;;;;;;;0.30;0.30;;;19.20;1.00;;;;;;5053365;28;20286;-77
2022/03/28 09:23:48;;;;;;;0.30;0.30;;;19.30;1.00;;;;;;5053802;28;20179;-76
2022/03/28 09:26:22;;;;;;;0.30;0.30;;;19.40;1.00;;;;;;5053454;28;20226;-76
2022/03/28 09:28:56;;;;;;;0.40;0.40;;;20.10;1.00;;;;;;5053878;28;20259;-76
2022/03/28 09:31:22;;;;;;;0.30;0.30;;;19.20;1.00;;;;;;5053521;28;20191;-77
2022/03/28 09:34:10;;;;;;;0.30;0.30;;;19.20;1.00;;;;;;5053405;28;20251;-78
2022/03/28 09:36:35;;;;;;;0.37;0.37;;;19.70;1.00;;;;;;5053582;28;20179;-78
2022/03/28 09:39:04;;;;;;;0.30;0.30;;;20.70;1.00;;;;;;5052907;28;20265;-76
2022/03/28 09:41:30;;;;;;;0.30;0.30;;;20.80;1.00;;;;;;5053224;28;20195;-76
2022/03/28 09:43:56;;;;;;;0.33;0.33;;;19.80;1.00;;;;;;5053530;28;20175;-76
2022/03/28 09:46:29;;;;;;;0.33;0.33;;;20.20;1.00;;;;;;5053134;28;20227;-76
2022/03/28 09:48:57;;;;;;;0.30;0.30;;;20.60;1.00;;;;;;5053194;28;20660;-77
2022/03/28 09:51:26;;;;;;;0.30;0.30;;;21.10;1.00;;;;;;5053273;28;20207;-77
2022/03/28 09:53:51;;;;;;;0.30;0.30;;;21.10;1.00;;;;;;5053023;28;20183;-76
2022/03/28 09:56:18;;;;;;;0.40;0.40;;;21.10;1.00;;;;;;5053766;28;20183;-77
2022/03/28 09:58:49;;;;;;;0.40;0.40;;;20.90;1.00;;;;;;5053448;28;20233;-75
2022/03/28 10:01:24;;;;;;;0.30;0.30;;;21.30;1.00;;;;;;5052663;28;20202;-76
2022/03/28 10:03:56;;;;;;;0.27;0.27;;;21.40;1.00;;;;;;5053321;28;20598;-76
2022/03/28 10:06:22;;;;;;;0.40;0.40;;;20.20;1.00;;;;;;5053824;28;20651;-76
2022/03/28 10:08:48;;;;;;;0.40;0.40;;;20.80;1.00;;;;;;5057585;28;20325;-74
2022/03/28 10:11:16;;;;;;;0.50;0.50;;;20.90;1.00;;;;;;5054696;28;20219;-74
2022/03/28 10:13:42;;;;;;;0.30;0.30;;;21.40;1.00;;;;;;5053360;28;20176;-76
2022/03/28 10:16:08;;;;;;;0.40;0.40;;;20.90;1.00;;;;;;5052407;28;20735;-75
2022/03/28 10:18:35;;;;;;;0.33;0.33;;;21.60;1.00;;;;;;5052379;28;20190;-75
2022/03/28 10:21:19;;;;;;;0.30;0.30;;;21.30;1.00;;;;;;5052329;28;20682;-75
2022/03/28 10:23:48;;;;;;;0.40;0.40;;;21.20;1.00;;;;;;5052602;28;20179;-76
2022/03/28 10:26:16;;;;;;;0.40;0.40;;;21.40;1.00;;;;;;5052063;28;20218;-75
2022/03/28 10:28:41;;;;;;;0.30;0.30;;;22.10;1.00;;;;;;5052407;28;20202;-75
2022/03/28 10:31:08;;;;;;;0.40;0.40;;;22.00;1.00;;;;;;5051668;28;20223;-75
2022/03/28 10:33:34;;;;;;;0.50;0.50;;;21.70;1.00;;;;;;5052142;28;20175;-76
2022/03/28 10:36:05;;;;;;;0.33;0.33;;;22.20;1.00;;;;;;5052335;28;20185;-74
2022/03/28 10:38:31;;;;;;;0.40;0.40;;;22.60;1.00;;;;;;5052322;28;20229;-76
2022/03/28 10:41:07;;;;;;;0.40;0.40;;;23.00;1.00;;;;;;5051620;28;20191;-75
2022/03/28 10:43:34;;;;;;;0.40;0.40;;;22.70;1.00;;;;;;5052122;28;20199;-75
2022/03/28 10:46:03;;;;;;;0.40;0.40;;;22.50;1.00;;;;;;5051857;28;20199;-76
2022/03/28 10:48:41;;;;;;;0.57;0.57;;;23.50;1.00;;;;;;5052259;28;20182;-75
2022/03/28 10:51:30;;;;;;;0.23;0.23;;;23.40;1.00;;;;;;5051322;28;21003;-74
2022/03/28 10:54:01;;;;;;;0.30;0.30;;;23.90;1.00;;;;;;5051820;28;20249;-75
2022/03/28 10:56:38;;;;;;;0.30;0.30;;;23.70;1.00;;;;;;5051770;28;20217;-75
2022/03/28 10:59:12;;;;;;;0.50;0.50;;;23.70;1.00;;;;;;5051094;28;20725;-74
2022/03/28 11:01:46;;;;;;;0.50;0.50;;;23.00;1.00;;;;;;5051829;28;20202;-75
2022/03/28 11:04:23;;;;;;;0.50;0.50;;;23.30;1.00;;;;;;5051799;28;20178;-76
2022/03/28 11:06:59;;;;;;;0.40;0.40;;;24.30;1.00;;;;;;5051541;28;20207;-76
2022/03/28 11:09:48;;;;;;;0.40;0.40;;;24.80;1.00;;;;;;5051301;28;20171;-74
2022/03/28 11:12:37;;;;;;;0.40;0.40;;;23.70;1.00;;;;;;5051407;28;20229;-74
2022/03/28 11:15:21;;;;;;;0.40;0.40;;;23.80;1.00;;;;;;5051590;28;20183;-74
2022/03/28 11:18:03;;;;;;;0.40;0.40;;;24.00;1.00;;;;;;5050838;28;20581;-74
2022/03/28 11:20:46;;;;;;;0.30;0.30;;;24.90;1.00;;;;;;5050892;28;20688;-75
2022/03/28 11:23:15;;;;;;;0.30;0.30;;;25.10;1.00;;;;;;5051574;28;20210;-73
2022/03/28 11:25:54;;;;;;;0.30;0.30;;;25.40;1.00;;;;;;5051363;28;20175;-74
2022/03/28 11:28:23;;;;;;;0.30;0.30;;;25.30;1.00;;;;;;5051551;28;20569;-73
2022/03/28 11:30:52;;;;;;;0.40;0.40;;;25.50;1.00;;;;;;5051005;28;20202;-74
2022/03/28 11:33:21;;;;;;;0.50;0.50;;;25.60;1.00;;;;;;5051177;28;20595;-74
2022/03/28 11:35:58;;;;;;;0.40;0.40;;;25.70;1.00;;;;;;5050810;28;20168;-75
2022/03/28 11:38:30;;;;;;;0.40;0.40;;;25.80;1.00;;;;;;5051043;28;20187;-76
2022/03/28 11:40:57;;;;;;;0.30;0.30;;;25.40;1.00;;;;;;5051061;28;20263;-74
2022/03/28 11:43:28;;;;;;;0.30;0.30;;;25.90;1.00;;;;;;5051323;28;20186;-75
2022/03/28 11:45:54;;;;;;;0.30;0.30;;;25.60;1.00;;;;;;5050659;28;20186;-75
2022/03/28 11:48:20;;;;;;;0.40;0.40;;;25.50;1.00;;;;;;5050911;28;20225;-74
2022/03/28 11:50:47;;;;;;;0.37;0.37;;;25.40;1.00;;;;;;5050040;28;20280;-74
2022/03/28 11:53:17;;;;;;;0.40;0.40;;;26.20;1.00;;;;;;5050543;28;20178;-76
2022/03/28 11:55:54;;;;;;;0.40;0.40;;;25.80;1.00;;;;;;5050992;28;20219;-76
2022/03/28 11:58:31;;;;;;;0.33;0.33;;;25.70;1.00;;;;;;5053512;28;20175;-75
2022/03/28 12:01:13;;;;;;;0.30;0.30;;;25.90;1.00;;;;;;5050711;28;20202;-77
2022/03/28 12:03:49;;;;;;;0.40;0.40;;;26.00;1.00;;;;;;5051390;28;20262;-76
2022/03/28 12:06:29;;;;;;;0.30;0.30;;;26.50;1.00;;;;;;5051115;28;20272;-75
2022/03/28 12:08:56;;;;;;;0.40;0.40;;;26.50;1.00;;;;;;5050352;28;20604;-77
2022/03/28 12:11:23;;;;;;;0.30;0.30;;;27.30;1.00;;;;;;5050916;28;20210;-76
2022/03/28 12:13:49;;;;;;;0.40;0.40;;;27.10;1.00;;;;;;5051130;28;20187;-76
2022/03/28 12:16:15;;;;;;;0.27;0.27;;;25.70;1.00;;;;;;5050772;28;20172;-76
2022/03/28 12:18:40;;;;;;;0.30;0.30;;;24.80;1.00;;;;;;5051049;28;20186;-77
2022/03/28 12:21:06;;;;;;;0.27;0.27;;;25.20;1.00;;;;;;5050378;28;20183;-76
2022/03/28 12:23:31;;;;;;;0.30;0.30;;;25.00;1.00;;;;;;5049388;28;20202;-76
2022/03/28 12:26:03;;;;;;;0.40;0.40;;;25.70;1.00;;;;;;5050434;28;20168;-76
2022/03/28 12:28:34;;;;;;;0.30;0.30;;;25.80;1.00;;;;;;5052710;28;20297;-76
2022/03/28 12:31:02;;;;;;;0.30;0.30;;;25.90;1.00;;;;;;5054166;28;20202;-75
2022/03/28 12:33:34;;;;;;;0.30;0.30;;;25.30;1.00;;;;;;5054847;28;20187;-75
2022/03/28 12:36:03;;;;;;;0.30;0.30;;;25.70;1.00;;;;;;5054634;28;20175;-76
2022/03/28 12:38:38;;;;;;;0.33;0.33;;;25.60;1.00;;;;;;5054312;28;20171;-75
2022/03/28 12:41:11;;;;;;;0.20;0.20;;;25.40;1.00;;;;;;5053983;28;20190;-76
2022/03/28 12:43:47;;;;;;;0.27;0.27;;;25.60;1.00;;;;;;5053822;28;20258;-75
2022/03/28 12:46:13;;;;;;;0.27;0.27;;;25.80;1.00;;;;;;5051366;28;20220;-75
2022/03/28 12:48:46;;;;;;;0.30;0.30;;;25.90;1.00;;;;;;5054187;28;20255;-76
2022/03/28 12:51:21;;;;;;;0.30;0.30;;;25.70;1.00;;;;;;5053679;28;20687;-76
2022/03/28 12:53:48;;;;;;;0.20;0.20;;;25.50;1.00;;;;;;5054085;28;20171;-74
2022/03/28 12:56:21;;;;;;;0.30;0.30;;;25.20;1.00;;;;;;5053191;28;20175;-75
2022/03/28 12:59:02;;;;;;;0.40;0.40;;;24.60;1.00;;;;;;5053454;28;20186;-74
2022/03/28 13:01:30;;;;;;;0.20;0.20;;;24.20;1.00;;;;;;5052273;28;20199;-76
2022/03/28 13:04:20;;;;;;;0.30;0.30;;;24.20;1.00;;;;;;5050633;28;20571;-74
2022/03/28 13:06:49;;;;;;;0.30;0.30;;;24.00;1.00;;;;;;5052078;28;20203;-75